Aviation Digital Data Service (ADDS)

Output produced by METARs form (0428 UTC 26 May 2018)
found at http://www.aviationweather.gov/adds/metars/
 
EPBY 260400Z 07005KT CAVOK 14/13 Q1023
TAF EPBY 252330Z 2600/2624 VRB02KT CAVOK 
     PROB40 2600/2605 4000 BR 
     BECMG 2606/2609 09010KT 
     TEMPO 2610/2624 4000 TSRA BKN030CB
       
EPGD 260400Z 26003KT 7000 NSC 12/11 Q1023
TAF AMD EPGD 260250Z 2602/2624 VRB02KT CAVOK 
     TEMPO 2603/2605 0500 FG 
     BECMG 2609/2611 04010KT 
     TEMPO 2612/2624 4000 TSRA BKN030CB
       
EPKK 260400Z 25003KT CAVOK 12/11 Q1021
TAF EPKK 260230Z 2603/2703 05004KT CAVOK 
     TEMPO 2612/2621 4000 SHRA BKN033CB 
     PROB40 
     TEMPO 2612/2621 VRB18G32KT 2000 TSRA BKN013CB 
     PROB30 2700/2703 2000 BR
       
EPKT 260400Z VRB02KT CAVOK 10/08 Q1022
TAF AMD EPKT 260233Z 2602/2624 07004KT CAVOK 
     TEMPO 2602/2606 2000 BR 
     TEMPO 2612/2621 4000 SHRA BKN033CB 
     PROB40 
     TEMPO 2612/2621 VRB18G30KT 2000 TSRA BKN013CB
       
EPLB 260400Z 08005KT CAVOK 16/15 Q1022
EPLL 260400Z VRB01KT CAVOK 12/12 Q1022
TAF EPLL 252330Z 2600/2624 09008KT CAVOK 
     PROB40 
     TEMPO 2600/2602 4000 TSRA BKN025CB 
     PROB40 
     TEMPO 2612/2618 4000 TSRA BKN030CB
       
EPMO 260400Z 09009KT CAVOK 16/14 Q1023
TAF EPMO 252330Z 2600/2624 05008KT CAVOK 
     TEMPO 2609/2624 3000 TSRA BKN030CB
       
EPPO 260400Z 33002KT 7000 NSC 11/10 Q1022
TAF EPPO 252330Z 2600/2624 03002KT CAVOK 
     TEMPO 2601/2606 1400 BR 
     PROB40 
     TEMPO 2601/2606 0500 FG 
     TEMPO 2611/2617 BKN026CB 
     PROB30 
     TEMPO 2612/2617 3000 TSRA BKN014CB
       
EPRA 260400Z 08004KT 8000 -SHRA SCT045CB 15/15 Q1022
EPRZ 260400Z 08007KT CAVOK 14/13 Q1021
TAF EPRZ 252330Z 2600/2624 03004KT CAVOK 
     BECMG 2608/2611 10010KT 
     TEMPO 2611/2621 4000 SHRA BKN035CB 
     PROB40 
     TEMPO 2611/2618 VRB20G35KT 1500 TSRAGR BKN013CB 
     BECMG 2621/2623 VRB02KT
       
EPSC 260400Z VRB01KT 9999 MIFG NSC 11/10 Q1023
TAF EPSC 252330Z 2600/2624 VRB02KT CAVOK 
     PROB30 2600/2605 4000 BR 
     BECMG 2606/2609 09010KT 
     TEMPO 2610/2620 4000 TSRA BKN030CB
       
EPSY 260400Z VRB02KT CAVOK 15/14 Q1024
EPWA 260400Z 07008KT CAVOK 17/14 Q1023 NOSIG
TAF EPWA 260230Z 2603/2703 05005KT CAVOK 
     TEMPO 2603/2610 -SHRA BKN040CB 
     TEMPO 2610/2624 VRB15G33KT 2000 TSRA BKN030CB
       
EPWR 260400Z VRB01KT 9999 MIFG NSC 10/09 Q1022
TAF EPWR 260230Z 2603/2703 09004KT CAVOK 
     TEMPO 2603/2605 1400 BR 
     PROB30 
     TEMPO 2603/2606 0500 FG 
     PROB40 
     TEMPO 2611/2617 BKN024CB
       
EPZG 260400Z VRB01KT CAVOK 11/09 Q1022
EPZG 260400Z VRB01KT CAVOK 11/09 Q1022
EPKK 260400Z 25003KT CAVOK 12/11 Q1021
TAF EPKK 260230Z 2603/2703 05004KT CAVOK 
     TEMPO 2612/2621 4000 SHRA BKN033CB 
     PROB40 
     TEMPO 2612/2621 VRB18G32KT 2000 TSRA BKN013CB 
     PROB30 2700/2703 2000 BR
       
EPSC 260400Z VRB01KT 9999 MIFG NSC 11/10 Q1023
TAF EPSC 252330Z 2600/2624 VRB02KT CAVOK 
     PROB30 2600/2605 4000 BR 
     BECMG 2606/2609 09010KT 
     TEMPO 2610/2620 4000 TSRA BKN030CB
       
EPRZ 260400Z 08007KT CAVOK 14/13 Q1021
TAF EPRZ 252330Z 2600/2624 03004KT CAVOK 
     BECMG 2608/2611 10010KT 
     TEMPO 2611/2621 4000 SHRA BKN035CB 
     PROB40 
     TEMPO 2611/2618 VRB20G35KT 1500 TSRAGR BKN013CB 
     BECMG 2621/2623 VRB02KT
       
EPPO 260400Z 33002KT 7000 NSC 11/10 Q1022
TAF EPPO 252330Z 2600/2624 03002KT CAVOK 
     TEMPO 2601/2606 1400 BR 
     PROB40 
     TEMPO 2601/2606 0500 FG 
     TEMPO 2611/2617 BKN026CB 
     PROB30 
     TEMPO 2612/2617 3000 TSRA BKN014CB
       
EPLL 260400Z VRB01KT CAVOK 12/12 Q1022
TAF EPLL 252330Z 2600/2624 09008KT CAVOK 
     PROB40 
     TEMPO 2600/2602 4000 TSRA BKN025CB 
     PROB40 
     TEMPO 2612/2618 4000 TSRA BKN030CB
       
EPWA 260400Z 07008KT CAVOK 17/14 Q1023 NOSIG
TAF EPWA 260230Z 2603/2703 05005KT CAVOK 
     TEMPO 2603/2610 -SHRA BKN040CB 
     TEMPO 2610/2624 VRB15G33KT 2000 TSRA BKN030CB
       
EPKT 260400Z VRB02KT CAVOK 10/08 Q1022
TAF AMD EPKT 260233Z 2602/2624 07004KT CAVOK 
     TEMPO 2602/2606 2000 BR 
     TEMPO 2612/2621 4000 SHRA BKN033CB 
     PROB40 
     TEMPO 2612/2621 VRB18G30KT 2000 TSRA BKN013CB
       
EPGD 260400Z 26003KT 7000 NSC 12/11 Q1023
TAF AMD EPGD 260250Z 2602/2624 VRB02KT CAVOK 
     TEMPO 2603/2605 0500 FG 
     BECMG 2609/2611 04010KT 
     TEMPO 2612/2624 4000 TSRA BKN030CB
       
EPWR 260400Z VRB01KT 9999 MIFG NSC 10/09 Q1022
TAF EPWR 260230Z 2603/2703 09004KT CAVOK 
     TEMPO 2603/2605 1400 BR 
     PROB30 
     TEMPO 2603/2606 0500 FG 
     PROB40 
     TEMPO 2611/2617 BKN024CB
       
EPBY 260400Z 07005KT CAVOK 14/13 Q1023
TAF EPBY 252330Z 2600/2624 VRB02KT CAVOK 
     PROB40 2600/2605 4000 BR 
     BECMG 2606/2609 09010KT 
     TEMPO 2610/2624 4000 TSRA BKN030CB
       
EPSY 260400Z VRB02KT CAVOK 15/14 Q1024